Time;durP1;ratioP1;P1;durP2;ratioP2;P2;SDS_P1;SDS_P2;PMS_P1;PMS_P2;Temp;Humidity;BMP_temperature;BMP_pressure;BME280_temperature;BME280_humidity;BME280_pressure;Samples;Min_cycle;Max_cycle;Signal;HPM_P1;HPM_P2
2021/03/03 00:01:04;;;;;;;23.58;10.65;;;11.80;69.40;;;;;;5035002;28;20041;-76
2021/03/03 00:03:29;;;;;;;23.13;10.43;;;11.90;69.70;;;;;;5034991;28;20079;-75
2021/03/03 00:05:56;;;;;;;22.60;10.82;;;11.80;69.90;;;;;;5036026;28;20109;-76
2021/03/03 00:08:22;;;;;;;20.35;10.82;;;11.80;70.10;;;;;;5036931;28;20033;-76
2021/03/03 00:10:48;;;;;;;22.25;10.93;;;11.80;70.30;;;;;;5035086;28;20040;-76
2021/03/03 00:13:14;;;;;;;19.27;10.55;;;11.80;70.30;;;;;;5034878;28;20037;-76
2021/03/03 00:15:39;;;;;;;19.48;11.13;;;11.70;70.60;;;;;;5034717;28;20064;-76
2021/03/03 00:18:05;;;;;;;22.17;10.98;;;11.70;70.90;;;;;;5034997;28;20068;-76
2021/03/03 00:20:31;;;;;;;23.98;10.48;;;11.70;71.00;;;;;;5034294;28;20037;-76
2021/03/03 00:22:57;;;;;;;24.33;11.90;;;11.70;71.10;;;;;;5036076;28;20045;-76
2021/03/03 00:25:23;;;;;;;22.05;11.15;;;11.70;71.20;;;;;;5037966;28;20045;-77
2021/03/03 00:27:49;;;;;;;27.58;11.38;;;11.60;71.40;;;;;;5040005;28;20367;-76
2021/03/03 00:30:16;;;;;;;28.73;11.50;;;11.60;71.60;;;;;;5040175;28;20037;-76
2021/03/03 00:32:42;;;;;;;24.38;10.80;;;11.60;71.70;;;;;;5038353;28;20047;-75
2021/03/03 00:35:08;;;;;;;21.75;11.32;;;11.60;71.80;;;;;;5038633;28;20101;-76
2021/03/03 00:37:34;;;;;;;19.90;10.88;;;11.60;72.00;;;;;;5039914;28;20045;-76
2021/03/03 00:40:00;;;;;;;23.35;11.13;;;11.60;72.10;;;;;;5038177;28;20037;-76
2021/03/03 00:42:26;;;;;;;26.52;11.82;;;11.60;72.20;;;;;;5039582;28;20043;-76
2021/03/03 00:44:52;;;;;;;20.52;11.57;;;11.60;72.40;;;;;;5039584;28;20037;-75
2021/03/03 00:47:18;;;;;;;20.90;11.95;;;11.60;72.50;;;;;;5036302;28;20521;-76
2021/03/03 00:49:43;;;;;;;24.77;11.63;;;11.50;72.50;;;;;;5033864;28;20075;-76
2021/03/03 00:52:09;;;;;;;27.17;13.07;;;11.50;72.70;;;;;;5034084;28;20041;-76
2021/03/03 00:54:35;;;;;;;31.52;12.00;;;11.50;72.80;;;;;;5034083;28;20096;-76
2021/03/03 00:57:01;;;;;;;23.55;12.18;;;11.50;72.90;;;;;;5033064;28;20486;-76
2021/03/03 00:59:26;;;;;;;29.30;12.45;;;11.50;73.00;;;;;;5033981;28;20041;-76
2021/03/03 01:01:52;;;;;;;24.77;11.93;;;11.50;73.20;;;;;;5034207;28;20041;-76
2021/03/03 01:04:18;;;;;;;26.05;12.27;;;11.50;73.30;;;;;;5033778;28;20061;-76
2021/03/03 01:06:44;;;;;;;23.73;11.80;;;11.40;73.30;;;;;;5032707;28;20037;-76
2021/03/03 01:09:09;;;;;;;20.48;11.65;;;11.40;73.50;;;;;;5033960;28;20033;-76
2021/03/03 01:11:35;;;;;;;25.30;11.65;;;11.40;73.60;;;;;;5033887;28;20033;-76
2021/03/03 01:14:01;;;;;;;24.83;12.02;;;11.30;73.70;;;;;;5034198;28;20028;-76
2021/03/03 01:16:27;;;;;;;19.85;12.40;;;11.30;74.00;;;;;;5032814;28;20440;-76
2021/03/03 01:18:53;;;;;;;32.30;13.13;;;11.30;74.00;;;;;;5033651;28;20038;-76
2021/03/03 01:21:19;;;;;;;29.58;13.10;;;11.20;74.30;;;;;;5034148;28;20046;-76
2021/03/03 01:23:45;;;;;;;23.80;11.88;;;11.20;74.50;;;;;;5038199;28;20052;-76
2021/03/03 01:26:10;;;;;;;26.58;12.52;;;11.20;74.70;;;;;;5037862;28;20034;-75
2021/03/03 01:28:36;;;;;;;24.08;12.15;;;11.20;74.70;;;;;;5037479;28;20040;-76
2021/03/03 01:31:02;;;;;;;23.17;12.40;;;11.20;74.90;;;;;;5037733;28;20041;-76
2021/03/03 01:33:30;;;;;;;25.25;12.77;;;11.20;75.00;;;;;;5037243;28;20037;-76
2021/03/03 01:35:56;;;;;;;23.60;11.98;;;11.10;75.50;;;;;;5036069;28;20564;-76
2021/03/03 01:38:23;;;;;;;24.92;12.57;;;11.00;76.10;;;;;;5037632;28;20065;-76
2021/03/03 01:40:50;;;;;;;25.85;12.90;;;10.90;76.80;;;;;;5037603;28;20140;-76
2021/03/03 01:43:16;;;;;;;24.65;12.45;;;10.80;77.40;;;;;;5037190;28;20068;-76
2021/03/03 01:45:42;;;;;;;26.08;13.65;;;10.70;77.50;;;;;;5037272;28;20056;-76
2021/03/03 01:48:09;;;;;;;28.63;12.35;;;10.70;77.70;;;;;;5037356;28;20068;-76
2021/03/03 01:50:38;;;;;;;23.23;12.85;;;10.80;77.80;;;;;;5037073;28;20038;-76
2021/03/03 01:53:04;;;;;;;29.88;13.75;;;10.80;78.50;;;;;;5037124;28;20041;-76
2021/03/03 01:55:30;;;;;;;21.33;12.57;;;10.80;78.00;;;;;;5035788;28;20037;-76
2021/03/03 01:57:57;;;;;;;21.75;11.98;;;10.80;77.70;;;;;;5037728;28;20536;-76
2021/03/03 02:00:23;;;;;;;25.88;12.73;;;10.80;77.60;;;;;;5035831;28;20099;-76
2021/03/03 02:02:49;;;;;;;22.75;12.95;;;10.70;77.80;;;;;;5037046;28;20033;-75
2021/03/03 02:05:18;;;;;;;25.85;13.77;;;10.70;77.90;;;;;;5036845;28;20029;-76
2021/03/03 02:08:03;;;;;;;25.42;12.70;;;10.70;78.00;;;;;;5037314;28;20026;-76
2021/03/03 02:10:46;;;;;;;32.40;14.57;;;10.70;78.30;;;;;;5036911;28;20049;-76
2021/03/03 02:13:36;;;;;;;25.55;13.07;;;10.70;78.40;;;;;;5036203;28;20096;-75
2021/03/03 02:16:05;;;;;;;25.52;12.77;;;10.70;78.60;;;;;;5036967;28;20086;-76
2021/03/03 02:18:33;;;;;;;29.23;14.15;;;10.70;78.60;;;;;;5036462;28;20414;-77
2021/03/03 02:21:29;;;;;;;29.83;15.00;;;10.70;78.70;;;;;;5036389;28;20077;-76
2021/03/03 02:24:12;;;;;;;27.50;15.05;;;10.70;78.50;;;;;;5036685;28;20037;-76
2021/03/03 02:26:39;;;;;;;25.63;13.48;;;10.70;78.60;;;;;;5035151;28;20033;-76
2021/03/03 02:29:08;;;;;;;29.45;13.98;;;10.70;78.70;;;;;;5036754;28;20045;-76
2021/03/03 02:31:35;;;;;;;27.00;13.40;;;10.70;78.60;;;;;;5037610;28;20041;-76
2021/03/03 02:34:05;;;;;;;26.67;14.23;;;10.70;78.30;;;;;;5038172;28;20048;-76
2021/03/03 02:36:32;;;;;;;25.95;13.80;;;10.80;78.30;;;;;;5038648;28;20045;-77
2021/03/03 02:38:59;;;;;;;24.85;13.68;;;10.80;78.20;;;;;;5038381;28;20406;-76
2021/03/03 02:41:25;;;;;;;36.10;14.73;;;10.80;78.10;;;;;;5038316;28;20041;-75
2021/03/03 02:43:51;;;;;;;29.52;13.25;;;10.80;77.90;;;;;;5038419;28;20052;-76
2021/03/03 02:46:18;;;;;;;33.17;14.85;;;10.80;77.70;;;;;;5037860;28;20040;-75
2021/03/03 02:48:46;;;;;;;27.02;13.30;;;10.90;77.40;;;;;;5037960;28;20124;-76
2021/03/03 02:51:12;;;;;;;23.70;13.38;;;10.90;77.20;;;;;;5037663;28;20064;-76
2021/03/03 02:53:40;;;;;;;27.80;13.77;;;10.90;77.00;;;;;;5036730;28;20116;-76
2021/03/03 02:56:07;;;;;;;25.55;14.23;;;10.90;77.10;;;;;;5035681;28;20276;-76
2021/03/03 02:58:33;;;;;;;29.17;14.10;;;10.90;77.10;;;;;;5036065;28;20053;-75
2021/03/03 03:01:02;;;;;;;25.65;14.05;;;10.90;77.10;;;;;;5035194;28;20059;-76
2021/03/03 03:03:34;;;;;;;30.92;15.35;;;10.90;76.50;;;;;;5034173;28;20065;-76
2021/03/03 03:06:07;;;;;;;25.90;13.60;;;10.90;76.60;;;;;;5034244;28;20091;-76
2021/03/03 03:08:35;;;;;;;27.17;14.35;;;10.90;76.90;;;;;;5035987;28;20037;-75
2021/03/03 03:11:06;;;;;;;29.95;14.55;;;10.90;76.90;;;;;;5035815;28;20037;-76
2021/03/03 03:13:35;;;;;;;23.52;13.60;;;10.90;76.90;;;;;;5035435;28;20041;-76
2021/03/03 03:16:03;;;;;;;26.65;13.05;;;10.90;76.80;;;;;;5035647;28;20060;-75
2021/03/03 03:18:34;;;;;;;26.65;13.13;;;10.90;76.70;;;;;;5034614;28;20044;-76
2021/03/03 03:21:02;;;;;;;26.23;13.38;;;10.90;76.60;;;;;;5035589;28;20045;-76
2021/03/03 03:23:29;;;;;;;25.60;14.13;;;10.90;76.50;;;;;;5035390;28;20496;-75
2021/03/03 03:25:56;;;;;;;25.25;13.55;;;10.90;76.60;;;;;;5034207;28;20068;-75
2021/03/03 03:28:23;;;;;;;24.73;13.15;;;10.90;76.90;;;;;;5035604;28;20431;-76
2021/03/03 03:30:50;;;;;;;28.17;13.63;;;10.90;76.90;;;;;;5034158;28;20505;-76
2021/03/03 03:33:18;;;;;;;33.42;13.85;;;11.00;76.70;;;;;;5034777;28;20041;-75
2021/03/03 03:35:53;;;;;;;24.00;13.80;;;11.00;76.70;;;;;;5054094;28;20048;-75
2021/03/03 03:38:18;;;;;;;37.08;13.65;;;10.90;77.00;;;;;;5055203;28;20072;-75
2021/03/03 03:40:44;;;;;;;26.85;13.65;;;11.00;77.00;;;;;;5055137;28;20076;-75
2021/03/03 03:43:11;;;;;;;26.13;13.82;;;11.00;76.80;;;;;;5055173;28;20043;-75
2021/03/03 03:45:43;;;;;;;25.80;12.15;;;11.00;76.90;;;;;;5055088;28;20107;-75
2021/03/03 03:48:10;;;;;;;27.40;14.60;;;10.90;77.60;;;;;;5053117;28;20087;-75
2021/03/03 03:50:36;;;;;;;25.55;13.57;;;10.80;77.60;;;;;;5054287;28;20452;-76
2021/03/03 03:53:02;;;;;;;26.52;13.77;;;10.80;77.30;;;;;;5054886;28;20111;-75
2021/03/03 03:55:40;;;;;;;28.50;14.13;;;10.90;77.40;;;;;;5053566;28;20083;-75
2021/03/03 03:58:06;;;;;;;22.80;13.57;;;10.80;77.40;;;;;;5054977;28;20037;-75
2021/03/03 04:00:33;;;;;;;25.25;13.32;;;10.80;77.40;;;;;;5053256;28;20449;-75
2021/03/03 04:03:00;;;;;;;26.40;14.00;;;10.90;77.30;;;;;;5054414;28;20064;-75
2021/03/03 04:05:39;;;;;;;27.77;14.27;;;10.90;77.10;;;;;;5055092;28;20378;-76
2021/03/03 04:08:05;;;;;;;27.50;14.38;;;10.80;77.20;;;;;;5055196;28;20115;-75
2021/03/03 04:10:31;;;;;;;34.17;15.00;;;10.80;77.40;;;;;;5054529;28;20123;-75
2021/03/03 04:12:57;;;;;;;29.15;14.52;;;10.80;77.60;;;;;;5054423;28;20087;-75
2021/03/03 04:15:24;;;;;;;29.55;14.32;;;10.80;77.70;;;;;;5054398;28;20041;-76
2021/03/03 04:17:49;;;;;;;31.35;15.38;;;10.80;77.50;;;;;;5054642;28;20037;-75
2021/03/03 04:20:17;;;;;;;29.20;14.48;;;10.80;77.30;;;;;;5054206;28;20528;-76
2021/03/03 04:22:43;;;;;;;32.13;15.75;;;10.80;77.30;;;;;;5054439;28;20025;-76
2021/03/03 04:25:11;;;;;;;27.25;14.20;;;10.80;77.40;;;;;;5054690;28;20086;-76
2021/03/03 04:27:38;;;;;;;26.55;13.32;;;10.80;77.40;;;;;;5053552;28;20398;-75
2021/03/03 04:30:12;;;;;;;25.40;15.25;;;10.80;77.30;;;;;;5056682;28;20519;-76
2021/03/03 04:32:37;;;;;;;26.17;13.60;;;10.70;77.40;;;;;;5057049;28;20517;-75
2021/03/03 04:35:05;;;;;;;28.23;15.38;;;10.70;77.50;;;;;;5058974;28;20056;-75
2021/03/03 04:37:30;;;;;;;28.17;13.73;;;10.70;77.70;;;;;;5058642;28;20102;-76
2021/03/03 04:39:56;;;;;;;27.13;14.13;;;10.70;77.60;;;;;;5057377;28;20037;-75
2021/03/03 04:42:22;;;;;;;28.63;14.35;;;10.70;77.30;;;;;;5058798;28;20037;-75
2021/03/03 04:44:48;;;;;;;34.25;14.80;;;10.70;77.30;;;;;;5059431;28;20041;-76
2021/03/03 04:47:14;;;;;;;26.83;14.35;;;10.70;77.60;;;;;;5058485;28;20036;-75
2021/03/03 04:49:40;;;;;;;33.53;15.32;;;10.60;78.00;;;;;;5056915;28;20067;-76
2021/03/03 04:52:06;;;;;;;29.73;14.40;;;10.50;78.10;;;;;;5054462;28;20406;-76
2021/03/03 04:54:34;;;;;;;27.13;14.85;;;10.50;78.00;;;;;;5054176;28;20064;-75
2021/03/03 04:57:00;;;;;;;30.90;13.93;;;10.50;77.90;;;;;;5056992;28;20040;-76
2021/03/03 04:59:26;;;;;;;30.63;14.57;;;10.50;78.10;;;;;;5056516;28;20132;-75
2021/03/03 05:01:52;;;;;;;30.42;13.77;;;10.50;78.20;;;;;;5055055;28;20111;-76
2021/03/03 05:04:18;;;;;;;29.35;14.88;;;10.50;78.10;;;;;;5057808;28;20082;-76
2021/03/03 05:06:43;;;;;;;34.28;14.32;;;10.50;78.10;;;;;;5057890;28;20033;-76
2021/03/03 05:09:09;;;;;;;21.50;14.05;;;10.50;78.10;;;;;;5058982;28;20057;-75
2021/03/03 05:11:35;;;;;;;24.63;13.93;;;10.50;78.30;;;;;;5058122;28;20028;-76
2021/03/03 05:14:01;;;;;;;28.67;13.90;;;10.50;78.30;;;;;;5057543;28;20414;-75
2021/03/03 05:16:27;;;;;;;28.17;13.52;;;10.60;78.30;;;;;;5057834;28;20048;-75
2021/03/03 05:18:52;;;;;;;24.65;14.32;;;10.50;78.30;;;;;;5057783;28;20123;-76
2021/03/03 05:21:18;;;;;;;27.08;14.57;;;10.50;78.60;;;;;;4862477;28;20055;-76
2021/03/03 05:23:44;;;;;;;29.25;13.30;;;10.50;78.80;;;;;;4994376;28;20129;-75
2021/03/03 05:26:10;;;;;;;27.23;13.95;;;10.40;79.00;;;;;;4992272;28;20460;-76
2021/03/03 05:28:36;;;;;;;24.05;13.65;;;10.40;79.10;;;;;;4978683;28;20558;-75
2021/03/03 05:31:02;;;;;;;28.98;15.23;;;10.50;79.10;;;;;;4880683;28;20086;-75
2021/03/03 05:33:30;;;;;;;28.83;14.07;;;10.50;79.00;;;;;;4975895;28;20042;-75
2021/03/03 05:35:58;;;;;;;30.48;13.93;;;10.40;79.00;;;;;;4979150;28;20054;-76
2021/03/03 05:38:24;;;;;;;27.20;14.82;;;10.40;79.30;;;;;;4978963;28;20130;-76
2021/03/03 05:40:51;;;;;;;26.77;15.10;;;10.40;79.20;;;;;;4978370;28;20125;-76
2021/03/03 05:43:18;;;;;;;37.78;15.13;;;10.50;79.10;;;;;;4978240;28;20037;-76
2021/03/03 05:45:46;;;;;;;39.70;14.85;;;10.50;79.30;;;;;;4978778;28;20070;-75
2021/03/03 05:48:14;;;;;;;26.23;13.23;;;10.40;79.40;;;;;;4961206;28;20039;-75
2021/03/03 05:50:42;;;;;;;29.40;14.43;;;10.50;79.40;;;;;;4978636;28;20515;-75
2021/03/03 05:53:08;;;;;;;32.60;14.15;;;10.50;79.20;;;;;;4977444;28;20039;-76
2021/03/03 05:55:34;;;;;;;28.63;13.88;;;10.50;79.30;;;;;;4978691;28;20047;-77
2021/03/03 05:58:02;;;;;;;29.38;13.88;;;10.60;79.10;;;;;;4977572;28;20127;-77
2021/03/03 06:00:30;;;;;;;38.88;13.85;;;10.60;79.00;;;;;;4978930;28;20070;-76
2021/03/03 06:02:57;;;;;;;33.05;15.15;;;10.60;79.00;;;;;;4979111;28;20034;-76
2021/03/03 06:05:23;;;;;;;25.67;14.20;;;10.60;79.00;;;;;;4978555;28;20487;-76
2021/03/03 06:07:49;;;;;;;38.17;14.60;;;10.50;79.30;;;;;;4978673;28;20360;-76
2021/03/03 06:10:15;;;;;;;26.40;14.63;;;10.50;79.50;;;;;;4979379;28;20030;-76
2021/03/03 06:12:41;;;;;;;34.38;14.98;;;10.40;79.70;;;;;;4979148;28;20043;-76
2021/03/03 06:15:07;;;;;;;37.17;14.80;;;10.40;80.10;;;;;;4984793;28;20046;-76
2021/03/03 06:17:34;;;;;;;33.92;16.13;;;10.30;80.30;;;;;;4990276;28;20051;-76
2021/03/03 06:20:03;;;;;;;23.00;13.52;;;10.30;80.50;;;;;;4988820;28;20053;-76
2021/03/03 06:22:29;;;;;;;30.02;14.57;;;10.30;80.40;;;;;;4988848;28;20027;-76
2021/03/03 06:24:56;;;;;;;34.63;15.10;;;10.40;80.40;;;;;;4990461;28;20031;-76
2021/03/03 06:27:24;;;;;;;34.65;14.32;;;10.40;80.30;;;;;;4990802;28;20065;-77
2021/03/03 06:30:11;;;;;;;25.33;14.15;;;10.40;80.40;;;;;;4985625;28;20058;-75
2021/03/03 06:33:03;;;;;;;42.95;21.92;;;10.40;80.20;;;;;;4993130;28;20061;-77
2021/03/03 06:35:37;;;;;;;34.50;15.93;;;10.30;80.30;;;;;;4992753;28;20062;-77
2021/03/03 06:38:06;;;;;;;32.25;14.80;;;10.30;80.40;;;;;;4992429;28;20046;-77
2021/03/03 06:40:33;;;;;;;37.92;15.95;;;10.30;80.70;;;;;;4989562;28;20053;-75
2021/03/03 06:43:18;;;;;;;37.47;15.95;;;10.30;80.50;;;;;;4986663;28;20043;-76
2021/03/03 06:45:43;;;;;;;33.33;15.95;;;10.30;80.80;;;;;;4990515;28;20042;-77
2021/03/03 06:48:10;;;;;;;34.63;16.42;;;10.20;81.00;;;;;;4996714;28;20042;-77
2021/03/03 06:50:37;;;;;;;37.78;15.93;;;10.30;81.60;;;;;;5003148;28;20042;-77
2021/03/03 06:53:03;;;;;;;27.27;16.00;;;10.30;80.60;;;;;;4992703;28;20026;-76
2021/03/03 06:55:47;;;;;;;30.27;15.05;;;10.30;80.50;;;;;;4985204;28;20039;-75
2021/03/03 06:58:29;;;;;;;32.50;14.52;;;10.40;80.10;;;;;;4989102;28;20043;-77
2021/03/03 07:00:57;;;;;;;33.50;14.65;;;10.40;79.80;;;;;;4991749;28;20054;-78
2021/03/03 07:03:27;;;;;;;32.75;14.70;;;10.50;79.70;;;;;;4991027;28;20039;-76
2021/03/03 07:05:54;;;;;;;30.88;15.05;;;10.50;79.60;;;;;;4983032;28;20039;-77
2021/03/03 07:08:20;;;;;;;29.63;14.48;;;10.50;79.80;;;;;;4978808;28;20058;-77
2021/03/03 07:10:47;;;;;;;57.05;16.73;;;10.50;79.70;;;;;;4984406;28;20073;-77
2021/03/03 07:13:13;;;;;;;154.35;22.20;;;10.50;79.60;;;;;;4980099;28;20117;-75
2021/03/03 07:15:39;;;;;;;43.70;15.40;;;10.50;79.80;;;;;;4986262;28;20066;-77
2021/03/03 07:18:35;;;;;;;41.58;16.00;;;10.50;79.50;;;;;;4988357;28;20054;-76
2021/03/03 07:21:02;;;;;;;43.95;16.27;;;10.60;79.30;;;;;;4991658;28;20109;-75
2021/03/03 07:23:44;;;;;;;35.28;15.02;;;10.70;78.80;;;;;;4988043;28;20046;-76
2021/03/03 07:26:15;;;;;;;29.30;15.15;;;10.60;78.30;;;;;;4989024;28;20042;-78
2021/03/03 07:28:41;;;;;;;38.05;16.50;;;10.60;78.40;;;;;;4991463;28;20379;-76
2021/03/03 07:31:09;;;;;;;42.40;15.82;;;10.60;78.40;;;;;;4988226;28;20042;-77
2021/03/03 07:33:35;;;;;;;38.30;15.65;;;10.60;78.50;;;;;;4988818;28;20035;-76
2021/03/03 07:36:04;;;;;;;32.72;14.32;;;10.70;78.00;;;;;;4988353;28;20110;-78
2021/03/03 07:38:32;;;;;;;36.17;14.57;;;10.70;77.40;;;;;;4994548;28;20027;-78
2021/03/03 07:41:04;;;;;;;31.15;15.05;;;10.70;77.60;;;;;;4986849;28;20081;-77
2021/03/03 07:43:31;;;;;;;36.42;16.02;;;10.60;78.00;;;;;;4987172;28;20030;-77
2021/03/03 07:46:05;;;;;;;26.65;13.85;;;10.50;78.40;;;;;;4987597;28;20144;-77
2021/03/03 07:48:32;;;;;;;47.85;15.80;;;10.60;78.00;;;;;;4983822;28;20047;-76
2021/03/03 07:51:00;;;;;;;37.97;14.35;;;10.50;77.90;;;;;;4987765;28;20043;-77
2021/03/03 07:53:26;;;;;;;40.10;14.35;;;10.60;77.90;;;;;;4986269;28;20143;-77
2021/03/03 07:55:58;;;;;;;38.05;13.85;;;10.60;77.10;;;;;;4984306;28;20042;-77
2021/03/03 07:58:27;;;;;;;35.08;13.52;;;10.70;77.00;;;;;;4990590;28;20062;-76
2021/03/03 08:00:54;;;;;;;25.27;12.63;;;10.70;76.50;;;;;;4988673;28;20567;-77
2021/03/03 08:03:42;;;;;;;30.60;12.77;;;10.80;76.20;;;;;;4990737;28;20055;-78
2021/03/03 08:06:20;;;;;;;35.72;13.90;;;11.00;75.70;;;;;;4981951;28;20066;-77
2021/03/03 08:09:05;;;;;;;29.55;13.38;;;11.00;75.50;;;;;;4991213;28;20038;-79
2021/03/03 08:11:31;;;;;;;;;;;11.10;74.40;;;;;;4988711;28;20130;-77
2021/03/03 08:13:57;;;;;;;25.70;11.30;;;11.30;73.80;;;;;;4987497;28;19924;-80
2021/03/03 08:16:23;;;;;;;28.45;12.05;;;11.40;73.00;;;;;;4995690;28;20042;-77
2021/03/03 08:18:54;;;;;;;28.20;12.90;;;11.50;72.90;;;;;;4995922;28;20050;-78
2021/03/03 08:21:25;;;;;;;32.95;12.60;;;11.50;72.50;;;;;;4989456;28;20062;-77
2021/03/03 08:24:01;;;;;;;27.08;13.30;;;11.50;72.50;;;;;;4992890;28;20029;-77
2021/03/03 08:26:34;;;;;;;24.20;11.70;;;11.50;72.50;;;;;;4990046;28;20046;-77
2021/03/03 08:29:21;;;;;;;21.25;11.68;;;11.50;72.30;;;;;;4980168;28;20038;-78
2021/03/03 08:31:47;;;;;;;20.20;10.88;;;11.70;71.60;;;;;;4979856;28;20256;-76
2021/03/03 08:34:15;;;;;;;28.50;10.80;;;11.80;71.60;;;;;;4980947;28;20045;-77
2021/03/03 08:36:41;;;;;;;27.02;10.63;;;11.90;71.20;;;;;;4977965;28;20035;-77
2021/03/03 08:39:09;;;;;;;31.48;11.32;;;12.00;70.70;;;;;;4979821;28;20039;-77
2021/03/03 08:41:39;;;;;;;31.45;10.98;;;12.00;70.60;;;;;;4980607;28;20042;-76
2021/03/03 08:44:14;;;;;;;28.23;11.70;;;12.10;70.60;;;;;;4984245;28;20046;-80
2021/03/03 08:46:41;;;;;;;28.42;12.23;;;12.00;70.60;;;;;;4979012;28;20526;-78
2021/03/03 08:49:07;;;;;;;28.27;11.85;;;12.00;71.00;;;;;;4977476;28;20581;-78
2021/03/03 08:52:06;;;;;;;28.60;11.35;;;12.10;71.00;;;;;;4979188;28;20043;-78
2021/03/03 08:54:43;;;;;;;32.97;11.93;;;12.20;71.40;;;;;;4978557;28;20557;-76
2021/03/03 08:57:33;;;;;;;25.17;12.05;;;12.20;71.40;;;;;;4978933;28;20158;-76
2021/03/03 09:00:00;;;;;;;24.58;11.43;;;12.20;71.60;;;;;;4975721;28;20046;-76
2021/03/03 09:02:37;;;;;;;21.00;11.73;;;12.30;72.00;;;;;;4981323;28;20049;-77
2021/03/03 09:05:08;;;;;;;29.38;12.43;;;12.30;72.00;;;;;;4980383;28;20039;-76
2021/03/03 09:07:34;;;;;;;25.25;11.80;;;12.40;72.00;;;;;;4982069;28;20047;-77
2021/03/03 09:10:18;;;;;;;25.13;11.75;;;12.40;72.00;;;;;;4983123;28;20035;-75
2021/03/03 09:12:45;;;;;;;29.23;11.15;;;12.60;71.40;;;;;;4977958;28;20101;-78
2021/03/03 09:15:14;;;;;;;21.00;10.65;;;12.70;70.60;;;;;;4977450;28;20034;-76
2021/03/03 09:17:40;;;;;;;22.85;10.65;;;12.70;70.70;;;;;;4979030;28;20097;-78
2021/03/03 09:20:32;;;;;;;24.30;11.02;;;12.90;70.70;;;;;;4978310;28;20141;-76
2021/03/03 09:22:58;;;;;;;24.15;10.40;;;12.90;69.60;;;;;;4978271;28;20041;-78
2021/03/03 09:25:24;;;;;;;29.10;11.27;;;12.80;69.90;;;;;;4978666;28;20031;-78
2021/03/03 09:27:59;;;;;;;25.17;10.50;;;12.90;70.10;;;;;;4977189;28;20411;-76
2021/03/03 09:30:25;;;;;;;;;;;13.10;69.10;;;;;;4979213;28;20114;-78
2021/03/03 09:32:51;;;;;;;19.98;10.75;;;13.10;69.00;;;;;;4977314;28;19926;-75
2021/03/03 09:35:28;;;;;;;22.80;11.05;;;13.20;69.40;;;;;;4977261;28;20439;-75
2021/03/03 09:37:54;;;;;;;22.52;10.70;;;13.40;69.00;;;;;;4978161;28;20126;-75
2021/03/03 09:40:28;;;;;;;19.90;10.13;;;13.30;68.90;;;;;;4978012;28;20145;-75
2021/03/03 09:42:53;;;;;;;23.20;12.00;;;13.20;69.30;;;;;;4978637;28;20141;-75
2021/03/03 09:45:22;;;;;;;28.80;12.35;;;13.20;69.40;;;;;;4977002;28;20503;-76
2021/03/03 09:47:49;;;;;;;23.33;10.85;;;13.40;68.90;;;;;;4977227;28;20050;-76
2021/03/03 09:50:21;;;;;;;28.13;11.55;;;13.60;68.10;;;;;;4979927;28;20038;-77
2021/03/03 09:52:50;;;;;;;22.65;11.30;;;13.60;68.10;;;;;;4978735;28;20133;-76
2021/03/03 09:55:17;;;;;;;21.58;10.88;;;13.60;67.90;;;;;;4978240;28;20046;-76
2021/03/03 09:57:49;;;;;;;29.55;10.98;;;13.70;67.90;;;;;;4978378;28;20051;-77
2021/03/03 10:00:18;;;;;;;32.00;11.32;;;13.80;67.50;;;;;;4977551;28;20092;-76
2021/03/03 10:02:52;;;;;;;30.80;11.30;;;13.70;67.60;;;;;;4977617;28;20046;-77
2021/03/03 10:05:26;;;;;;;31.38;11.85;;;13.80;67.50;;;;;;4977762;28;20046;-77
2021/03/03 10:07:53;;;;;;;;;;;13.70;67.60;;;;;;4976876;28;20089;-77
2021/03/03 10:10:21;;;;;;;27.05;11.77;;;13.60;68.00;;;;;;4976543;28;19936;-77
2021/03/03 10:12:47;;;;;;;26.65;11.70;;;13.30;69.00;;;;;;4976748;28;20042;-77
2021/03/03 10:15:15;;;;;;;24.20;11.85;;;13.00;70.10;;;;;;4977525;28;20053;-76
2021/03/03 10:17:50;;;;;;;24.70;12.18;;;13.00;70.80;;;;;;4979301;28;20118;-75
2021/03/03 10:20:15;;;;;;;;;;;13.00;70.80;;;;;;4979979;28;20054;-76
2021/03/03 10:22:44;;;;;;;35.40;11.70;;;13.00;71.20;;;;;;4979412;28;19936;-75
2021/03/03 10:25:12;;;;;;;28.17;11.20;;;13.00;71.20;;;;;;4978849;28;20035;-78
2021/03/03 10:27:40;;;;;;;20.08;10.57;;;13.20;71.30;;;;;;4979409;28;20035;-77
2021/03/03 10:30:21;;;;;;;23.75;10.93;;;13.20;70.90;;;;;;4980166;28;20042;-79
2021/03/03 10:32:48;;;;;;;25.48;11.23;;;13.60;69.90;;;;;;4978937;28;20043;-77
2021/03/03 10:35:14;;;;;;;28.67;12.23;;;13.70;69.00;;;;;;4978377;28;20039;-79
2021/03/03 10:37:40;;;;;;;30.77;12.77;;;13.70;70.20;;;;;;4976882;28;20129;-79
2021/03/03 10:40:16;;;;;;;24.13;11.43;;;13.80;69.30;;;;;;4975096;28;20137;-77
2021/03/03 10:42:43;;;;;;;27.27;12.45;;;14.20;70.00;;;;;;4976721;28;20126;-78
2021/03/03 10:45:23;;;;;;;24.13;11.50;;;14.60;66.90;;;;;;4975069;28;20070;-77
2021/03/03 10:47:50;;;;;;;24.80;11.20;;;14.70;66.30;;;;;;4975005;28;20073;-79
2021/03/03 10:50:21;;;;;;;29.60;13.75;;;15.00;65.20;;;;;;4976464;28;20057;-78
2021/03/03 10:52:57;;;;;;;22.63;11.18;;;15.10;64.80;;;;;;4975039;28;20039;-76
2021/03/03 10:55:25;;;;;;;26.67;11.77;;;15.10;65.60;;;;;;4975995;28;20046;-77
2021/03/03 10:58:07;;;;;;;27.90;12.80;;;15.00;66.30;;;;;;4976212;28;20121;-76
2021/03/03 11:00:56;;;;;;;25.65;13.82;;;14.70;66.80;;;;;;4974760;28;20046;-76
2021/03/03 11:03:23;;;;;;;26.27;12.57;;;14.70;67.90;;;;;;4974327;28;20034;-76
2021/03/03 11:05:57;;;;;;;31.02;12.57;;;14.70;67.20;;;;;;4977268;28;20380;-77
2021/03/03 11:08:23;;;;;;;;;;;14.80;66.90;;;;;;4976766;28;20034;-76
2021/03/03 11:10:50;;;;;;;28.98;12.18;;;14.70;66.90;;;;;;4975758;28;19925;-76
2021/03/03 11:13:16;;;;;;;27.30;12.38;;;15.10;66.10;;;;;;4975639;28;20042;-76
2021/03/03 11:15:44;;;;;;;34.42;12.63;;;15.00;65.60;;;;;;4974478;28;20476;-76
2021/03/03 11:18:10;;;;;;;24.42;11.80;;;14.90;66.60;;;;;;4974349;28;20558;-76
2021/03/03 11:20:37;;;;;;;25.38;13.38;;;14.90;66.50;;;;;;4975662;28;20051;-76
2021/03/03 11:23:04;;;;;;;26.63;12.10;;;15.00;66.60;;;;;;4975841;28;20534;-76
2021/03/03 11:25:30;;;;;;;25.02;11.48;;;15.30;65.80;;;;;;4976219;28;20066;-76
2021/03/03 11:27:56;;;;;;;27.17;12.90;;;15.60;64.60;;;;;;4974890;28;20101;-76
2021/03/03 11:30:22;;;;;;;28.58;11.98;;;15.80;63.80;;;;;;4975720;28;20388;-76
2021/03/03 11:32:50;;;;;;;26.48;13.10;;;15.80;63.00;;;;;;4975900;28;20043;-76
2021/03/03 11:35:17;;;;;;;27.73;11.90;;;16.10;62.30;;;;;;4975612;28;20045;-76
2021/03/03 11:37:43;;;;;;;26.95;11.60;;;16.40;61.90;;;;;;4976028;28;20078;-76
2021/03/03 11:40:09;;;;;;;22.73;12.07;;;16.70;60.50;;;;;;4975291;28;20476;-77
2021/03/03 11:42:35;;;;;;;25.15;13.15;;;16.90;60.00;;;;;;4975904;28;20097;-76
2021/03/03 11:45:01;;;;;;;24.48;11.35;;;17.10;59.60;;;;;;4975557;28;20030;-76
2021/03/03 11:47:27;;;;;;;24.02;12.43;;;17.10;59.60;;;;;;4975593;28;20046;-76
2021/03/03 11:49:53;;;;;;;27.50;12.55;;;17.30;59.30;;;;;;4975728;28;20039;-76
2021/03/03 11:52:18;;;;;;;25.92;13.32;;;17.20;59.00;;;;;;4975597;28;20082;-77
2021/03/03 11:54:44;;;;;;;29.98;13.55;;;17.20;59.70;;;;;;4975343;28;20483;-76
2021/03/03 11:57:10;;;;;;;35.13;13.90;;;17.30;59.80;;;;;;4976258;28;20092;-77
2021/03/03 11:59:36;;;;;;;19.77;12.23;;;16.90;61.50;;;;;;4975752;28;20038;-77
2021/03/03 12:02:02;;;;;;;27.95;13.30;;;16.90;61.50;;;;;;4974267;28;20042;-77
2021/03/03 12:04:28;;;;;;;25.45;13.18;;;17.00;61.00;;;;;;4975192;28;20096;-77
2021/03/03 12:06:54;;;;;;;30.05;13.55;;;16.90;61.90;;;;;;4974173;28;20543;-77
2021/03/03 12:09:20;;;;;;;33.72;14.27;;;16.80;62.30;;;;;;4975672;28;20031;-77
2021/03/03 12:11:46;;;;;;;27.48;12.93;;;16.80;62.90;;;;;;4975391;28;20031;-77
2021/03/03 12:14:12;;;;;;;28.90;12.65;;;16.80;63.80;;;;;;4975083;28;20043;-77
2021/03/03 12:16:37;;;;;;;35.67;14.60;;;17.30;61.90;;;;;;4975009;28;20583;-77
2021/03/03 12:19:03;;;;;;;26.63;12.70;;;17.90;60.30;;;;;;4978089;28;20047;-80
2021/03/03 12:21:30;;;;;;;25.17;11.88;;;18.20;59.80;;;;;;4974068;28;20578;-76
2021/03/03 12:23:57;;;;;;;28.95;12.15;;;18.50;58.50;;;;;;4976309;28;20042;-78
2021/03/03 12:26:23;;;;;;;25.35;13.05;;;18.50;59.10;;;;;;4980855;28;20039;-78
2021/03/03 12:28:49;;;;;;;39.88;14.70;;;18.50;59.00;;;;;;4979790;28;20054;-79
2021/03/03 12:31:15;;;;;;;34.22;12.98;;;18.40;59.60;;;;;;4979816;28;20046;-76
2021/03/03 12:33:41;;;;;;;28.45;12.98;;;18.10;59.80;;;;;;4977244;28;20411;-78
2021/03/03 12:36:08;;;;;;;30.95;13.00;;;18.00;59.70;;;;;;4973037;28;20039;-77